createdAt,value
2022-11-21T00:01:29.907Z,88.93
2022-11-21T00:03:58.143Z,88.93
2022-11-21T00:06:27.080Z,89.04
2022-11-21T00:08:56.865Z,89.07
2022-11-21T00:11:25.138Z,89.15
2022-11-21T00:13:53.403Z,89.22
2022-11-21T00:16:21.938Z,89.25
2022-11-21T00:18:50.032Z,89.37
2022-11-21T00:21:20.981Z,89.39
2022-11-21T00:23:49.279Z,89.40
2022-11-21T00:26:17.851Z,89.35
2022-11-21T00:28:46.088Z,89.33
2022-11-21T00:31:24.255Z,89.28
2022-11-21T00:33:52.489Z,89.23
2022-11-21T00:36:20.756Z,89.20
2022-11-21T00:38:48.999Z,89.16
2022-11-21T00:41:17.185Z,89.10
2022-11-21T00:43:45.346Z,88.98
2022-11-21T00:46:13.566Z,88.86
2022-11-21T00:48:41.635Z,88.89
2022-11-21T00:51:09.751Z,88.87
2022-11-21T00:53:38.030Z,88.89
2022-11-21T00:56:06.149Z,88.86
2022-11-21T00:58:35.025Z,88.83
2022-11-21T01:01:09.558Z,88.83
2022-11-21T01:03:38.299Z,88.70
2022-11-21T01:06:12.181Z,88.74
2022-11-21T01:08:50.041Z,88.79
2022-11-21T01:11:20.322Z,88.75
2022-11-21T01:13:49.175Z,88.76
2022-11-21T01:16:21.516Z,88.67
2022-11-21T01:18:50.618Z,88.71
2022-11-21T01:21:30.604Z,88.78
2022-11-21T01:24:03.429Z,88.76
2022-11-21T01:26:35.295Z,88.73
2022-11-21T01:29:04.019Z,88.83
2022-11-21T01:31:32.160Z,88.88
2022-11-21T01:34:01.110Z,88.86
2022-11-21T01:36:34.598Z,88.93
2022-11-21T01:39:06.549Z,89.05
2022-11-21T01:41:38.978Z,89.08
2022-11-21T01:44:14.148Z,89.15
2022-11-21T01:46:42.319Z,89.22
2022-11-21T01:49:32.749Z,89.32
2022-11-21T01:52:20.455Z,89.31
2022-11-21T01:54:56.590Z,89.46
2022-11-21T01:57:32.838Z,89.51
2022-11-21T02:00:23.798Z,89.49
2022-11-21T02:03:04.005Z,89.48
2022-11-21T02:05:38.258Z,89.46
2022-11-21T02:08:17.919Z,89.41
2022-11-21T02:11:16.897Z,89.42
2022-11-21T02:13:45.115Z,89.44
2022-11-21T02:16:13.725Z,89.45
2022-11-21T02:18:41.866Z,89.39
2022-11-21T02:21:38.015Z,89.42
2022-11-21T02:24:21.396Z,89.45
2022-11-21T02:26:50.006Z,89.31
2022-11-21T02:29:18.262Z,89.29
2022-11-21T02:31:46.449Z,89.33
2022-11-21T02:34:14.749Z,89.43
2022-11-21T02:36:47.239Z,89.48
2022-11-21T02:39:22.657Z,89.58
2022-11-21T02:41:57.879Z,89.70
2022-11-21T02:44:50.533Z,89.77
2022-11-21T02:47:20.686Z,89.76
2022-11-21T02:50:07.675Z,89.79
2022-11-21T02:52:35.655Z,89.84
2022-11-21T02:55:04.335Z,90.02
2022-11-21T02:57:32.546Z,89.96
2022-11-21T03:00:00.779Z,89.92
2022-11-21T03:02:29.007Z,89.92
2022-11-21T03:04:57.415Z,89.88
2022-11-21T03:07:25.671Z,89.97
2022-11-21T03:09:53.835Z,89.91
2022-11-21T03:12:22.046Z,89.93
2022-11-21T03:14:50.254Z,89.92
2022-11-21T03:17:18.892Z,89.91
2022-11-21T03:19:47.310Z,89.88
2022-11-21T03:22:15.515Z,89.92
2022-11-21T03:24:43.686Z,89.88
2022-11-21T03:27:12.057Z,89.72
2022-11-21T03:29:40.218Z,89.78
2022-11-21T03:32:08.660Z,89.84
2022-11-21T03:34:37.015Z,89.91
2022-11-21T03:37:05.675Z,89.99
2022-11-21T03:39:33.844Z,90.00
2022-11-21T03:42:02.016Z,90.05
2022-11-21T03:44:30.285Z,90.10
2022-11-21T03:46:58.348Z,90.23
2022-11-21T03:49:26.737Z,90.32
2022-11-21T03:51:54.958Z,90.29
2022-11-21T03:54:23.152Z,90.33
2022-11-21T03:56:51.258Z,90.36
2022-11-21T03:59:19.358Z,90.37
2022-11-21T04:01:47.576Z,90.36
2022-11-21T04:04:15.910Z,90.36
2022-11-21T04:06:44.119Z,90.37
2022-11-21T04:09:12.258Z,90.37
2022-11-21T04:11:40.356Z,90.43
2022-11-21T04:14:08.305Z,90.50
2022-11-21T04:16:36.849Z,90.48
2022-11-21T04:19:05.107Z,90.48
2022-11-21T04:21:33.250Z,90.51
2022-11-21T04:24:01.412Z,90.31
2022-11-21T04:26:29.525Z,90.28
2022-11-21T04:28:58.001Z,90.34
2022-11-21T04:31:26.218Z,90.33
2022-11-21T04:33:54.661Z,90.29
2022-11-21T04:36:22.819Z,90.15
2022-11-21T04:38:51.014Z,90.02
2022-11-21T04:41:19.085Z,89.92
2022-11-21T04:43:47.256Z,89.99
2022-11-21T04:46:15.425Z,90.02
2022-11-21T04:48:43.584Z,90.02
2022-11-21T04:51:12.055Z,90.00
2022-11-21T04:53:43.101Z,90.10
2022-11-21T04:56:11.715Z,90.19
2022-11-21T04:58:39.979Z,90.22
2022-11-21T05:01:08.895Z,90.18
2022-11-21T05:03:37.103Z,90.28
2022-11-21T05:06:05.369Z,90.37
2022-11-21T05:08:33.642Z,90.42
2022-11-21T05:11:20.492Z,90.50
2022-11-21T05:13:48.765Z,90.56
2022-11-21T05:16:16.937Z,90.45
2022-11-21T05:18:44.961Z,90.28
2022-11-21T05:21:13.207Z,90.29
2022-11-21T05:23:41.401Z,90.40
2022-11-21T05:26:09.615Z,90.41
2022-11-21T05:28:37.861Z,90.38
2022-11-21T05:31:06.176Z,90.40
2022-11-21T05:33:34.324Z,90.40
2022-11-21T05:36:05.608Z,90.45
2022-11-21T05:38:33.772Z,90.43
2022-11-21T05:41:01.965Z,90.45
2022-11-21T05:44:02.369Z,90.41
2022-11-21T05:46:30.735Z,90.47
2022-11-21T05:48:59.285Z,90.48
2022-11-21T05:51:27.459Z,90.44
2022-11-21T05:53:55.636Z,90.45
2022-11-21T05:56:23.670Z,90.47
2022-11-21T05:58:52.230Z,90.43
2022-11-21T06:01:40.357Z,90.44
2022-11-21T06:04:09.415Z,90.51
2022-11-21T06:06:37.641Z,90.51
2022-11-21T06:09:05.933Z,90.41
2022-11-21T06:11:34.263Z,90.31
2022-11-21T06:14:02.364Z,90.40
2022-11-21T06:16:30.379Z,90.36
2022-11-21T06:18:59.052Z,90.33
2022-11-21T06:21:29.677Z,90.35
2022-11-21T06:23:59.332Z,90.45
2022-11-21T06:26:28.406Z,90.44
2022-11-21T06:28:56.799Z,90.46
2022-11-21T06:31:27.119Z,90.50
2022-11-21T06:33:57.476Z,90.42
2022-11-21T06:36:26.541Z,90.43
2022-11-21T06:38:57.162Z,90.41
2022-11-21T06:41:30.500Z,90.38
2022-11-21T06:44:03.183Z,90.37
2022-11-21T06:46:31.351Z,90.18
2022-11-21T06:48:59.548Z,89.96
2022-11-21T06:51:27.735Z,89.71
2022-11-21T06:53:57.885Z,89.60
2022-11-21T06:56:28.809Z,89.48
2022-11-21T06:58:57.384Z,89.41
2022-11-21T07:01:26.056Z,89.31
2022-11-21T07:03:55.155Z,89.09
2022-11-21T07:06:24.126Z,88.71
2022-11-21T07:11:43.277Z,88.36
2022-11-21T07:14:11.496Z,87.71
2022-11-21T07:16:39.694Z,87.50
2022-11-21T07:19:07.948Z,87.00
2022-11-21T07:21:36.056Z,86.69
2022-11-21T07:24:04.589Z,86.41
2022-11-21T07:26:32.876Z,85.68
2022-11-21T07:29:01.198Z,85.39
2022-11-21T07:31:29.398Z,84.89
2022-11-21T07:33:57.592Z,84.43
2022-11-21T07:36:26.037Z,84.36
2022-11-21T07:38:54.306Z,84.63
2022-11-21T07:41:22.357Z,84.75
2022-11-21T07:43:50.473Z,84.39
2022-11-21T07:46:18.858Z,84.20
2022-11-21T07:48:47.094Z,84.04
2022-11-21T07:51:15.276Z,84.35
2022-11-21T07:53:43.487Z,84.30
2022-11-21T07:56:11.492Z,84.21
2022-11-21T07:58:39.576Z,83.57
2022-11-21T08:01:07.826Z,83.45
2022-11-21T08:03:35.906Z,83.43
2022-11-21T08:06:05.364Z,81.84
2022-11-21T08:08:33.453Z,81.70
2022-11-21T08:11:05.971Z,80.89
2022-11-21T08:13:36.612Z,81.21
2022-11-21T08:16:05.383Z,80.97
2022-11-21T08:18:33.539Z,80.54
2022-11-21T08:21:05.106Z,79.52
2022-11-21T08:23:33.168Z,79.13
2022-11-21T08:26:01.711Z,78.48
2022-11-21T08:28:29.815Z,77.81
2022-11-21T08:30:57.872Z,77.26
2022-11-21T08:33:25.888Z,76.87
2022-11-21T08:35:54.007Z,76.03
2022-11-21T08:38:22.103Z,75.62
2022-11-21T08:41:17.445Z,76.24
2022-11-21T08:43:45.890Z,74.85
2022-11-21T08:46:13.931Z,73.48
2022-11-21T08:48:41.886Z,73.45
2022-11-21T08:51:09.931Z,72.80
2022-11-21T08:53:38.032Z,72.92
2022-11-21T08:56:06.169Z,73.68
2022-11-21T08:58:34.293Z,74.13
2022-11-21T09:01:02.349Z,73.18
2022-11-21T09:03:31.491Z,72.74
2022-11-21T09:06:00.431Z,72.45
2022-11-21T09:08:29.751Z,72.59
2022-11-21T09:10:59.033Z,72.60
2022-11-21T09:13:27.767Z,72.14
2022-11-21T09:16:20.394Z,71.51
2022-11-21T09:18:52.856Z,71.96
2022-11-21T09:21:22.092Z,69.99
2022-11-21T09:23:52.770Z,69.24
2022-11-21T09:26:20.812Z,69.35
2022-11-21T09:28:48.786Z,68.10
2022-11-21T09:31:16.827Z,67.19
2022-11-21T09:33:44.920Z,65.41
2022-11-21T09:36:15.890Z,63.63
2022-11-21T09:38:44.187Z,61.72
2022-11-21T09:41:54.285Z,63.44
2022-11-21T09:44:40.675Z,64.12
2022-11-21T09:47:19.243Z,66.16
2022-11-21T09:49:53.917Z,67.30
2022-11-21T09:52:31.821Z,68.12
2022-11-21T09:55:05.167Z,68.22
2022-11-21T09:57:35.954Z,68.91
2022-11-21T10:00:16.091Z,69.01
2022-11-21T10:02:47.342Z,69.32
2022-11-21T10:05:17.493Z,69.60
2022-11-21T10:07:51.794Z,69.09
2022-11-21T10:10:42.474Z,66.57
2022-11-21T10:13:13.275Z,65.71
2022-11-21T10:16:02.556Z,66.02
2022-11-21T10:18:58.866Z,65.71
2022-11-21T10:21:32.878Z,61.05
2022-11-21T10:24:41.311Z,59.86
2022-11-21T10:27:27.157Z,61.06
2022-11-21T10:30:20.797Z,61.32
2022-11-21T10:32:58.579Z,60.10
2022-11-21T10:35:50.524Z,59.63
2022-11-21T10:38:24.059Z,60.48
2022-11-21T10:41:03.986Z,60.89
2022-11-21T10:43:59.928Z,61.20
2022-11-21T10:46:27.989Z,58.98
2022-11-21T10:49:02.892Z,56.63
2022-11-21T10:51:53.353Z,56.82
2022-11-21T10:54:33.433Z,56.14
2022-11-21T10:57:14.218Z,55.64
2022-11-21T11:00:00.847Z,55.05
2022-11-21T11:02:29.031Z,54.47
2022-11-21T11:05:16.154Z,55.25
2022-11-21T11:08:01.524Z,56.69
2022-11-21T11:10:30.416Z,57.24
2022-11-21T11:13:44.427Z,56.95
2022-11-21T11:16:16.441Z,57.40
2022-11-21T11:18:55.789Z,55.50
2022-11-21T11:21:27.776Z,56.29
2022-11-21T11:24:09.311Z,57.10
2022-11-21T11:26:49.739Z,58.40
2022-11-21T11:29:31.079Z,56.50
2022-11-21T11:31:59.394Z,55.54
2022-11-21T11:34:38.325Z,55.01
2022-11-21T11:37:20.651Z,55.98
2022-11-21T11:40:07.607Z,55.22
2022-11-21T11:43:02.453Z,55.73
2022-11-21T11:46:08.198Z,56.92
2022-11-21T11:49:03.767Z,58.82
2022-11-21T11:51:48.358Z,59.92
2022-11-21T11:54:23.751Z,61.78
2022-11-21T11:56:52.386Z,63.19
2022-11-21T11:59:20.364Z,64.36
2022-11-21T12:02:16.845Z,65.24
2022-11-21T12:04:54.121Z,65.74
2022-11-21T12:08:33.074Z,65.91
2022-11-21T12:11:01.084Z,66.26
2022-11-21T12:13:31.566Z,66.84
2022-11-21T12:16:13.679Z,66.79
2022-11-21T12:18:52.576Z,66.89
2022-11-21T12:21:21.167Z,66.70
2022-11-21T12:23:53.763Z,65.72
2022-11-21T12:26:21.678Z,64.01
2022-11-21T12:29:20.781Z,62.54
2022-11-21T12:32:19.848Z,62.76
2022-11-21T12:35:00.048Z,63.82
2022-11-21T12:37:47.263Z,64.85
2022-11-21T12:40:48.469Z,65.69
2022-11-21T12:43:42.382Z,66.70
2022-11-21T12:46:21.070Z,67.43
2022-11-21T12:49:17.182Z,67.90
2022-11-21T12:52:27.249Z,68.27
2022-11-21T12:54:57.977Z,68.37
2022-11-21T12:57:49.331Z,68.46
2022-11-21T13:00:29.871Z,68.55
2022-11-21T13:03:13.206Z,68.85
2022-11-21T13:05:47.078Z,68.86
2022-11-21T13:08:24.233Z,68.95
2022-11-21T13:11:25.663Z,69.58
2022-11-21T13:14:04.960Z,69.77
2022-11-21T13:16:37.042Z,70.02
2022-11-21T13:19:26.503Z,70.19
2022-11-21T13:21:55.135Z,70.15
2022-11-21T13:24:44.891Z,70.66
2022-11-21T13:27:36.548Z,71.27
2022-11-21T13:30:06.668Z,71.50
2022-11-21T13:32:42.795Z,71.63
2022-11-21T13:35:16.783Z,71.78
2022-11-21T13:38:08.616Z,71.68
2022-11-21T13:40:39.904Z,71.79
2022-11-21T13:43:32.589Z,72.11
2022-11-21T13:46:01.346Z,72.35
2022-11-21T13:48:32.222Z,72.63
2022-11-21T13:51:19.041Z,72.91
2022-11-21T13:53:59.196Z,73.15
2022-11-21T13:56:58.927Z,73.50
2022-11-21T13:59:51.802Z,73.93
2022-11-21T14:03:01.957Z,74.20
2022-11-21T14:06:05.253Z,74.69
2022-11-21T14:08:34.237Z,75.29
2022-11-21T14:11:30.190Z,75.56
2022-11-21T14:13:58.367Z,75.89
2022-11-21T14:16:44.047Z,76.41
2022-11-21T14:19:24.532Z,76.80
2022-11-21T14:21:52.694Z,76.88
2022-11-21T14:24:24.817Z,77.05
2022-11-21T14:26:54.187Z,77.19
2022-11-21T14:29:41.136Z,77.36
2022-11-21T14:32:15.214Z,77.52
2022-11-21T14:34:43.500Z,77.58
2022-11-21T14:37:13.177Z,77.83
2022-11-21T14:39:44.699Z,77.86
2022-11-21T14:42:16.979Z,78.14
2022-11-21T14:44:46.559Z,78.47
2022-11-21T14:47:23.094Z,78.73
2022-11-21T14:50:00.853Z,78.94
2022-11-21T14:52:34.202Z,79.14
2022-11-21T14:57:54.599Z,79.46
2022-11-21T15:03:25.324Z,80.04
2022-11-21T15:06:07.444Z,80.14
2022-11-21T15:11:40.129Z,80.42
2022-11-21T15:14:37.606Z,80.58
2022-11-21T15:17:10.921Z,80.67
2022-11-21T15:19:41.569Z,80.63
2022-11-21T15:22:28.658Z,80.79
2022-11-21T15:25:17.796Z,80.90
2022-11-21T15:27:47.913Z,81.14
2022-11-21T15:30:18.806Z,81.46
2022-11-21T15:33:07.115Z,81.53
2022-11-21T15:35:37.987Z,81.56
2022-11-21T15:38:30.586Z,81.75
2022-11-21T15:41:29.732Z,81.80
2022-11-21T15:44:00.863Z,82.07
2022-11-21T15:46:34.719Z,82.09
2022-11-21T15:49:31.028Z,82.13
2022-11-21T15:52:10.633Z,82.30
2022-11-21T15:54:38.737Z,82.44
2022-11-21T15:57:07.011Z,82.55
2022-11-21T15:59:35.107Z,82.66
2022-11-21T16:02:03.603Z,82.90
2022-11-21T16:04:31.883Z,83.03
2022-11-21T16:07:00.589Z,83.18
2022-11-21T16:09:29.876Z,83.05
2022-11-21T16:11:58.766Z,83.00
2022-11-21T16:14:26.806Z,83.18
2022-11-21T16:16:54.899Z,83.38
2022-11-21T16:19:23.002Z,83.43
2022-11-21T16:21:51.021Z,83.57
2022-11-21T16:24:19.124Z,83.60
2022-11-21T16:26:47.190Z,83.61
2022-11-21T16:29:15.292Z,83.49
2022-11-21T16:31:43.190Z,83.44
2022-11-21T16:34:11.341Z,83.68
2022-11-21T16:36:39.364Z,83.90
2022-11-21T16:39:12.329Z,83.98
2022-11-21T16:41:45.977Z,84.03
2022-11-21T16:44:15.984Z,83.95
2022-11-21T16:46:47.392Z,83.91
2022-11-21T16:49:15.388Z,84.01
2022-11-21T16:51:43.675Z,84.13
2022-11-21T16:54:11.721Z,84.19
2022-11-21T16:56:39.734Z,84.26
2022-11-21T16:59:08.081Z,84.14
2022-11-21T17:01:36.272Z,84.11
2022-11-21T17:04:04.837Z,84.09
2022-11-21T17:06:33.007Z,84.10
2022-11-21T17:09:02.469Z,84.29
2022-11-21T17:11:31.594Z,84.22
2022-11-21T17:14:07.210Z,84.20
2022-11-21T17:16:36.157Z,84.33
2022-11-21T17:19:05.005Z,84.18
2022-11-21T17:21:34.260Z,84.21
2022-11-21T17:24:02.391Z,84.24
2022-11-21T17:26:30.790Z,84.26
2022-11-21T17:29:01.176Z,84.34
2022-11-21T17:31:29.996Z,84.34
2022-11-21T17:34:01.377Z,84.41
2022-11-21T17:36:30.996Z,84.30
2022-11-21T17:38:59.105Z,84.33
2022-11-21T17:41:27.803Z,84.40
2022-11-21T17:43:57.697Z,84.36
2022-11-21T17:46:27.325Z,84.24
2022-11-21T17:48:58.813Z,84.33
2022-11-21T17:51:34.627Z,84.43
2022-11-21T17:54:03.093Z,84.57
2022-11-21T17:56:34.442Z,84.63
2022-11-21T17:59:03.281Z,84.67
2022-11-21T18:01:34.247Z,84.40
2022-11-21T18:04:13.376Z,84.44
2022-11-21T18:06:43.682Z,84.64
2022-11-21T18:09:13.130Z,84.56
2022-11-21T18:11:42.018Z,84.54
2022-11-21T18:14:12.309Z,84.71
2022-11-21T18:16:46.071Z,84.65
2022-11-21T18:19:18.626Z,84.75
2022-11-21T18:21:46.829Z,84.80
2022-11-21T18:24:15.050Z,84.79
2022-11-21T18:26:43.123Z,84.94
2022-11-21T18:31:59.780Z,84.73
2022-11-21T18:34:27.977Z,84.63
2022-11-21T18:36:56.248Z,84.71
2022-11-21T18:39:25.369Z,84.72
2022-11-21T18:41:53.767Z,84.64
2022-11-21T18:44:22.835Z,84.76
2022-11-21T18:46:51.837Z,84.75
2022-11-21T18:49:20.212Z,84.67
2022-11-21T18:51:48.754Z,84.62
2022-11-21T18:54:17.480Z,84.66
2022-11-21T18:56:47.414Z,84.69
2022-11-21T18:59:15.917Z,84.71
2022-11-21T19:01:44.240Z,84.94
2022-11-21T19:04:12.708Z,85.00
2022-11-21T19:06:40.980Z,85.00
2022-11-21T19:09:09.561Z,85.03
2022-11-21T19:11:37.720Z,84.88
2022-11-21T19:14:06.129Z,84.95
2022-11-21T19:16:34.721Z,85.10
2022-11-21T19:22:01.849Z,85.09
2022-11-21T19:24:30.291Z,85.17
2022-11-21T19:26:58.442Z,85.24
2022-11-21T19:29:26.975Z,85.24
2022-11-21T19:31:56.204Z,85.33
2022-11-21T19:34:24.405Z,85.35
2022-11-21T19:36:53.270Z,85.41
2022-11-21T19:39:21.537Z,85.49
2022-11-21T19:41:49.696Z,85.55
2022-11-21T19:44:18.164Z,85.60
2022-11-21T19:46:46.617Z,85.75
2022-11-21T19:49:16.762Z,85.79
2022-11-21T19:51:45.312Z,85.74
2022-11-21T19:54:15.979Z,85.86
2022-11-21T19:56:44.426Z,85.91
2022-11-21T19:59:13.842Z,85.90
2022-11-21T20:01:42.219Z,85.98
2022-11-21T20:04:11.615Z,85.96
2022-11-21T20:06:43.179Z,86.07
2022-11-21T20:09:17.976Z,86.17
2022-11-21T20:11:49.073Z,86.19
2022-11-21T20:14:22.859Z,86.27
2022-11-21T20:16:54.523Z,86.29
2022-11-21T20:19:24.877Z,86.42
2022-11-21T20:21:54.380Z,86.53
2022-11-21T20:24:22.797Z,86.60
2022-11-21T20:26:51.258Z,86.56
2022-11-21T20:29:19.688Z,86.71
2022-11-21T20:31:48.622Z,86.75
2022-11-21T20:34:16.842Z,86.89
2022-11-21T20:36:46.813Z,86.74
2022-11-21T20:39:18.321Z,86.63
2022-11-21T20:41:48.437Z,86.56
2022-11-21T20:47:09.778Z,86.70
2022-11-21T20:49:38.512Z,86.63
2022-11-21T20:53:43.913Z,86.57
2022-11-21T20:54:55.396Z,86.66
2022-11-21T20:57:23.586Z,86.74
2022-11-21T20:59:52.045Z,86.82
2022-11-21T21:02:20.273Z,86.86
2022-11-21T21:04:48.561Z,86.79
2022-11-21T21:07:17.166Z,86.92
2022-11-21T21:09:45.287Z,87.05
2022-11-21T21:12:13.547Z,87.02
2022-11-21T21:14:41.515Z,87.01
2022-11-21T21:17:09.724Z,86.85
2022-11-21T21:19:37.907Z,86.78
2022-11-21T21:22:06.588Z,86.78
2022-11-21T21:24:34.620Z,86.79
2022-11-21T21:27:02.770Z,86.81
2022-11-21T21:29:31.635Z,86.76
2022-11-21T21:32:00.329Z,86.73
2022-11-21T21:34:29.107Z,86.76
2022-11-21T21:36:58.788Z,86.78
2022-11-21T21:39:27.574Z,86.89
2022-11-21T21:41:55.827Z,86.90
2022-11-21T21:44:28.348Z,87.03
2022-11-21T21:47:00.264Z,87.10
2022-11-21T21:49:28.660Z,87.06
2022-11-21T21:51:57.326Z,87.03
2022-11-21T21:54:25.534Z,86.97
2022-11-21T21:56:53.729Z,86.86
2022-11-21T21:59:21.915Z,86.82
2022-11-21T22:01:50.237Z,86.83
2022-11-21T22:04:18.458Z,86.82
2022-11-21T22:06:46.699Z,86.69
2022-11-21T22:09:15.017Z,86.73
2022-11-21T22:11:43.492Z,86.74
2022-11-21T22:14:15.125Z,86.82
2022-11-21T22:16:43.688Z,86.86
2022-11-21T22:19:11.914Z,86.88
2022-11-21T22:21:40.281Z,86.93
2022-11-21T22:24:30.004Z,86.94
2022-11-21T22:26:58.326Z,86.83
2022-11-21T22:29:26.590Z,87.01
2022-11-21T22:31:54.691Z,87.00
2022-11-21T22:34:23.049Z,87.11
2022-11-21T22:36:51.422Z,87.27
2022-11-21T22:39:20.262Z,87.15
2022-11-21T22:41:48.654Z,87.13
2022-11-21T22:44:16.741Z,87.08
2022-11-21T22:46:44.945Z,87.03
2022-11-21T22:49:13.168Z,87.05
2022-11-21T22:51:41.248Z,87.04
2022-11-21T22:54:09.618Z,86.96
2022-11-21T22:56:37.819Z,86.98
2022-11-21T22:59:06.075Z,86.96
2022-11-21T23:01:34.908Z,86.92
2022-11-21T23:04:03.518Z,86.81
2022-11-21T23:06:31.767Z,86.80
2022-11-21T23:09:00.186Z,86.83
2022-11-21T23:11:39.254Z,86.91
2022-11-21T23:14:09.206Z,86.93
2022-11-21T23:16:37.433Z,87.04
2022-11-21T23:19:05.675Z,86.97
2022-11-21T23:21:34.327Z,86.90
2022-11-21T23:24:02.517Z,86.92
2022-11-21T23:26:30.711Z,86.95
2022-11-21T23:29:01.299Z,86.84
2022-11-21T23:31:34.016Z,86.88
2022-11-21T23:34:02.363Z,86.85
2022-11-21T23:36:30.680Z,86.95
2022-11-21T23:38:58.916Z,87.10
2022-11-21T23:41:27.275Z,87.12
2022-11-21T23:43:55.506Z,87.05
2022-11-21T23:46:23.732Z,87.14
2022-11-21T23:48:52.049Z,87.01
2022-11-21T23:51:20.435Z,87.18
2022-11-21T23:53:48.583Z,87.09
2022-11-21T23:56:17.296Z,87.13
2022-11-21T23:58:45.364Z,87.06
